Time;durP1;ratioP1;P1;durP2;ratioP2;P2;SDS_P1;SDS_P2;PMS_P1;PMS_P2;Temp;Humidity;BMP_temperature;BMP_pressure;BME280_temperature;BME280_humidity;BME280_pressure;Samples;Min_cycle;Max_cycle;Signal;HPM_P1;HPM_P2
2022/05/31 00:01:53;;;;;;;8.10;1.98;;;8.50;99.90;;;;;;4976411;28;20089;-80
2022/05/31 00:04:20;;;;;;;4.60;2.17;;;8.40;99.90;;;;;;4978611;28;20062;-80
2022/05/31 00:06:46;;;;;;;7.60;1.77;;;8.40;99.90;;;;;;4975396;28;20050;-80
2022/05/31 00:09:12;;;;;;;3.58;1.42;;;8.40;99.90;;;;;;4993217;28;20506;-81
2022/05/31 00:11:41;;;;;;;2.85;1.50;;;8.40;99.90;;;;;;4993398;28;20113;-80
2022/05/31 00:14:08;;;;;;;4.90;1.52;;;8.40;99.90;;;;;;4960075;28;20046;-81
2022/05/31 00:16:34;;;;;;;3.88;1.95;;;8.40;99.90;;;;;;4993996;28;20090;-80
2022/05/31 00:19:00;;;;;;;4.28;2.42;;;8.40;99.90;;;;;;4998490;28;20383;-80
2022/05/31 00:21:44;;;;;;;5.93;2.20;;;8.40;99.90;;;;;;4993171;28;20085;-77
2022/05/31 00:24:17;;;;;;;4.07;2.20;;;8.40;99.90;;;;;;4992750;28;20072;-80
2022/05/31 00:26:44;;;;;;;4.55;2.50;;;8.40;99.90;;;;;;4993566;28;20126;-77
2022/05/31 00:29:10;;;;;;;4.05;2.22;;;8.40;99.90;;;;;;4978827;28;20061;-77
2022/05/31 00:31:40;;;;;;;6.88;2.55;;;8.50;99.90;;;;;;4975268;28;20449;-80
2022/05/31 00:34:07;;;;;;;5.95;3.70;;;8.50;99.90;;;;;;4992806;28;20042;-79
2022/05/31 00:36:33;;;;;;;5.95;2.85;;;8.50;99.90;;;;;;4977480;28;20058;-77
2022/05/31 00:38:59;;;;;;;5.80;2.97;;;8.50;99.90;;;;;;4963558;28;20050;-77
2022/05/31 00:41:26;;;;;;;7.70;3.70;;;8.50;99.90;;;;;;4985164;28;20054;-77
2022/05/31 00:44:04;;;;;;;7.40;3.45;;;8.60;99.90;;;;;;4993394;28;20490;-78
2022/05/31 00:46:54;;;;;;;8.07;3.63;;;8.60;99.90;;;;;;4992566;28;20050;-79
2022/05/31 00:49:52;;;;;;;5.32;2.85;;;8.60;99.90;;;;;;4975076;28;20094;-80
2022/05/31 00:52:48;;;;;;;7.18;4.78;;;8.60;99.90;;;;;;4988305;28;20108;-80
2022/05/31 00:55:19;;;;;;;7.57;3.13;;;8.60;99.90;;;;;;4995293;28;20058;-76
2022/05/31 00:58:07;;;;;;;7.10;4.15;;;8.60;99.90;;;;;;4992646;28;20057;-77
2022/05/31 01:00:36;;;;;;;5.18;3.45;;;8.70;99.90;;;;;;4994054;28;20505;-77
2022/05/31 01:03:04;;;;;;;7.45;4.45;;;8.70;99.90;;;;;;4992446;28;20050;-79
2022/05/31 01:05:30;;;;;;;7.47;4.38;;;8.70;99.90;;;;;;4974420;28;20134;-78
2022/05/31 01:07:56;;;;;;;6.20;3.80;;;8.70;99.90;;;;;;4977730;28;20510;-77
2022/05/31 01:10:22;;;;;;;8.95;3.95;;;8.70;99.90;;;;;;4977828;28;20108;-76
2022/05/31 01:12:50;;;;;;;7.25;3.90;;;8.70;99.90;;;;;;4974761;28;20097;-79
2022/05/31 01:15:18;;;;;;;7.05;4.13;;;8.80;99.90;;;;;;4992498;28;20645;-79
2022/05/31 01:17:44;;;;;;;7.20;4.38;;;8.80;99.90;;;;;;4994681;28;20259;-79
2022/05/31 01:20:12;;;;;;;8.65;4.43;;;8.80;99.90;;;;;;4991465;28;20039;-79
2022/05/31 01:22:43;;;;;;;9.32;4.60;;;8.80;99.90;;;;;;4996891;28;20058;-80
2022/05/31 01:25:46;;;;;;;7.03;4.70;;;8.90;99.90;;;;;;4974439;28;20041;-77
2022/05/31 01:28:27;;;;;;;7.95;5.53;;;8.90;99.90;;;;;;4974062;28;20581;-79
2022/05/31 01:31:23;;;;;;;10.15;5.18;;;8.90;99.90;;;;;;4984204;28;20072;-80
2022/05/31 01:33:55;;;;;;;10.65;4.30;;;8.90;99.90;;;;;;4975330;28;20081;-80
2022/05/31 01:36:36;;;;;;;9.48;5.50;;;9.00;99.90;;;;;;4991615;28;20537;-80
2022/05/31 01:39:07;;;;;;;9.38;5.60;;;9.00;99.90;;;;;;4979760;28;20055;-79
2022/05/31 01:41:38;;;;;;;10.20;5.90;;;9.00;99.90;;;;;;4974141;28;20047;-78
2022/05/31 01:44:08;;;;;;;9.07;6.43;;;9.10;99.90;;;;;;4974428;28;20077;-80
2022/05/31 01:46:35;;;;;;;12.15;6.47;;;9.10;99.90;;;;;;4957875;28;20507;-77
2022/05/31 01:49:08;;;;;;;12.50;6.57;;;9.10;99.90;;;;;;4975928;28;20798;-79
2022/05/31 01:51:40;;;;;;;10.30;6.18;;;9.10;99.90;;;;;;4974315;28;20089;-79
2022/05/31 01:54:08;;;;;;;11.07;6.65;;;9.20;99.90;;;;;;4991401;28;20414;-77
2022/05/31 01:56:35;;;;;;;13.90;7.38;;;9.20;99.90;;;;;;4975028;28;20052;-76
2022/05/31 01:59:03;;;;;;;10.23;6.90;;;9.20;99.90;;;;;;4996308;28;20042;-78
2022/05/31 02:01:31;;;;;;;11.40;6.63;;;9.20;99.90;;;;;;4973824;28;20046;-76
2022/05/31 02:03:58;;;;;;;9.20;5.80;;;9.30;99.90;;;;;;4991971;28;20448;-79
2022/05/31 02:06:33;;;;;;;12.23;6.55;;;9.30;99.90;;;;;;4975860;28;20050;-77
2022/05/31 02:09:00;;;;;;;8.57;5.25;;;9.30;99.90;;;;;;4974026;28;20055;-78
2022/05/31 02:11:26;;;;;;;8.07;5.68;;;9.30;99.90;;;;;;4973680;28;20050;-81
2022/05/31 02:13:52;;;;;;;9.43;5.35;;;9.30;99.90;;;;;;4974207;28;20128;-79
2022/05/31 02:16:18;;;;;;;9.32;5.57;;;9.30;99.90;;;;;;4980450;28;20058;-79
2022/05/31 02:21:35;;;;;;;8.50;5.05;;;9.30;99.90;;;;;;4996412;28;20050;-79
2022/05/31 02:24:13;;;;;;;9.07;5.65;;;9.30;99.90;;;;;;4977566;28;20505;-77
2022/05/31 02:26:41;;;;;;;11.82;5.90;;;9.30;99.90;;;;;;4995209;28;20054;-80
2022/05/31 02:29:09;;;;;;;14.90;6.93;;;9.30;99.90;;;;;;4977295;28;20564;-80
2022/05/31 02:31:35;;;;;;;8.00;5.75;;;9.30;99.90;;;;;;4995245;28;20054;-80
2022/05/31 02:34:02;;;;;;;8.38;5.88;;;9.30;99.90;;;;;;4978302;28;20099;-79
2022/05/31 02:36:28;;;;;;;9.80;6.10;;;9.30;99.90;;;;;;4981640;28;20062;-80
2022/05/31 02:38:55;;;;;;;9.70;6.47;;;9.30;99.90;;;;;;4996365;28;20050;-77
2022/05/31 02:41:21;;;;;;;9.18;5.75;;;9.40;99.90;;;;;;4995617;28;20061;-81
2022/05/31 02:43:48;;;;;;;7.40;5.38;;;9.40;99.90;;;;;;4977857;28;20050;-80
2022/05/31 02:46:14;;;;;;;8.10;6.05;;;9.40;99.90;;;;;;4976996;28;20047;-80
2022/05/31 02:48:39;;;;;;;8.15;5.53;;;9.50;99.90;;;;;;4994710;28;20562;-79
2022/05/31 02:51:05;;;;;;;11.82;6.78;;;9.50;99.90;;;;;;4977440;28;20185;-81
2022/05/31 02:53:31;;;;;;;10.70;6.85;;;9.50;99.90;;;;;;4999881;28;20506;-79
2022/05/31 02:55:58;;;;;;;8.63;6.15;;;9.50;99.90;;;;;;4996297;28;20058;-75
2022/05/31 02:58:25;;;;;;;12.63;7.40;;;9.50;99.90;;;;;;4994426;28;20050;-80
2022/05/31 03:00:52;;;;;;;9.18;6.57;;;9.50;99.90;;;;;;4994573;28;20082;-81
2022/05/31 03:03:18;;;;;;;10.80;6.32;;;9.50;99.90;;;;;;4977063;28;20518;-79
2022/05/31 03:05:44;;;;;;;11.00;6.25;;;9.50;99.90;;;;;;4976940;28;20046;-77
2022/05/31 03:08:11;;;;;;;10.50;6.15;;;9.50;99.90;;;;;;4977107;28;20073;-78
2022/05/31 03:10:43;;;;;;;11.52;7.05;;;9.50;99.90;;;;;;5002157;28;20051;-79
2022/05/31 03:13:11;;;;;;;9.57;6.38;;;9.50;99.90;;;;;;4999435;28;20050;-76
2022/05/31 03:15:38;;;;;;;8.93;5.95;;;9.60;99.90;;;;;;4993821;28;20646;-77
2022/05/31 03:18:13;;;;;;;9.35;5.88;;;9.60;99.90;;;;;;4976654;28;20105;-79
2022/05/31 03:20:44;;;;;;;10.88;6.40;;;9.60;99.90;;;;;;4976705;28;20054;-78
2022/05/31 03:23:52;;;;;;;10.65;5.95;;;9.60;99.90;;;;;;4994103;28;20406;-77
2022/05/31 03:26:21;;;;;;;10.10;6.32;;;9.60;99.90;;;;;;4940521;28;20449;-78
2022/05/31 03:28:47;;;;;;;10.63;7.43;;;9.60;99.90;;;;;;4976073;28;20057;-77
2022/05/31 03:31:14;;;;;;;10.88;6.82;;;9.60;99.90;;;;;;4976578;28;20402;-79
2022/05/31 03:33:40;;;;;;;11.10;7.60;;;9.60;99.90;;;;;;4976376;28;20061;-79
2022/05/31 03:36:06;;;;;;;12.35;7.32;;;9.60;99.90;;;;;;4976100;28;20050;-78
2022/05/31 03:38:32;;;;;;;10.93;6.90;;;9.60;99.90;;;;;;4993858;28;20538;-79
2022/05/31 03:41:01;;;;;;;9.30;6.70;;;9.60;99.90;;;;;;4977630;28;20140;-78
2022/05/31 03:43:29;;;;;;;11.65;7.57;;;9.60;99.90;;;;;;4996482;28;20065;-79
2022/05/31 03:45:55;;;;;;;9.27;6.50;;;9.60;99.90;;;;;;4976261;28;20498;-79
2022/05/31 03:48:22;;;;;;;10.50;7.18;;;9.60;99.90;;;;;;4976211;28;20056;-78
2022/05/31 03:50:58;;;;;;;10.27;6.40;;;9.70;99.90;;;;;;4993525;28;20097;-78
2022/05/31 03:53:24;;;;;;;9.25;6.28;;;9.70;99.90;;;;;;4976109;28;20138;-78
2022/05/31 03:55:50;;;;;;;10.65;7.20;;;9.70;99.90;;;;;;4961207;28;20057;-78
2022/05/31 03:58:16;;;;;;;8.07;5.97;;;9.70;99.90;;;;;;4978283;28;20058;-77
2022/05/31 04:00:42;;;;;;;9.52;7.03;;;9.70;99.90;;;;;;4976186;28;20505;-77
2022/05/31 04:03:08;;;;;;;9.38;5.95;;;9.70;99.90;;;;;;4993575;28;20109;-79
2022/05/31 04:05:34;;;;;;;9.32;6.18;;;9.70;99.90;;;;;;4993245;28;20046;-79
2022/05/31 04:08:08;;;;;;;11.02;6.38;;;9.60;99.90;;;;;;4959471;28;20086;-76
2022/05/31 04:10:35;;;;;;;9.73;5.72;;;9.80;99.90;;;;;;4976579;28;20494;-79
2022/05/31 04:13:02;;;;;;;8.63;5.15;;;9.80;99.90;;;;;;4982887;28;20061;-78
2022/05/31 04:15:28;;;;;;;8.93;6.15;;;9.90;99.90;;;;;;4977079;28;20569;-79
2022/05/31 04:17:54;;;;;;;7.93;4.95;;;9.90;99.90;;;;;;4985313;28;20042;-77
2022/05/31 04:20:20;;;;;;;9.43;6.28;;;9.90;99.90;;;;;;4959646;28;20081;-79
2022/05/31 04:22:47;;;;;;;8.05;5.60;;;9.90;99.90;;;;;;4975427;28;20065;-78
2022/05/31 04:25:13;;;;;;;7.78;5.53;;;10.00;99.90;;;;;;4993230;28;20050;-79
2022/05/31 04:27:38;;;;;;;10.38;6.80;;;10.00;99.90;;;;;;4977825;28;20478;-75
2022/05/31 04:30:05;;;;;;;9.02;6.35;;;10.00;99.90;;;;;;4978485;28;20129;-77
2022/05/31 04:32:31;;;;;;;8.32;5.88;;;10.00;99.90;;;;;;4994144;28;20063;-78
2022/05/31 04:34:57;;;;;;;9.77;6.07;;;10.00;99.90;;;;;;4993029;28;20050;-79
2022/05/31 04:37:23;;;;;;;10.13;6.50;;;10.10;99.90;;;;;;4992930;28;20137;-77
2022/05/31 04:39:48;;;;;;;10.13;5.90;;;10.10;99.90;;;;;;4992167;28;20110;-76
2022/05/31 04:42:16;;;;;;;7.20;4.60;;;10.10;99.90;;;;;;4992854;28;20046;-79
2022/05/31 04:44:42;;;;;;;7.90;5.38;;;10.20;99.90;;;;;;4995354;28;20075;-79
2022/05/31 04:47:08;;;;;;;7.57;5.30;;;10.20;99.90;;;;;;4997989;28;20058;-79
2022/05/31 04:49:34;;;;;;;9.07;4.97;;;10.20;99.90;;;;;;4993216;28;20046;-80
2022/05/31 04:52:00;;;;;;;7.95;5.45;;;10.30;99.90;;;;;;4993244;28;20096;-80
2022/05/31 04:54:30;;;;;;;7.40;5.05;;;10.30;99.90;;;;;;4959598;28;20097;-80
2022/05/31 04:56:59;;;;;;;12.38;5.45;;;10.30;99.90;;;;;;4975989;28;20072;-79
2022/05/31 04:59:26;;;;;;;7.78;5.43;;;10.30;99.90;;;;;;4975494;28;20425;-79
2022/05/31 05:01:52;;;;;;;8.27;4.72;;;10.40;99.90;;;;;;4993057;28;20113;-79
2022/05/31 05:04:18;;;;;;;7.65;5.07;;;10.40;99.90;;;;;;4975816;28;20495;-77
2022/05/31 05:06:44;;;;;;;7.25;4.75;;;10.50;99.90;;;;;;4977700;28;20054;-79
2022/05/31 05:09:09;;;;;;;13.18;5.55;;;10.50;99.90;;;;;;4991962;28;20042;-78
2022/05/31 05:11:35;;;;;;;7.28;4.38;;;10.50;99.90;;;;;;4992420;28;20081;-81
2022/05/31 05:14:01;;;;;;;9.45;4.45;;;10.60;99.90;;;;;;4974718;28;20062;-79
2022/05/31 05:16:28;;;;;;;7.50;4.47;;;10.60;99.90;;;;;;4974603;28;20058;-77
2022/05/31 05:18:54;;;;;;;7.35;5.28;;;10.60;99.90;;;;;;4975144;28;20078;-80
2022/05/31 05:21:20;;;;;;;7.68;4.65;;;10.70;99.90;;;;;;4996196;28;20077;-80
2022/05/31 05:23:46;;;;;;;9.40;4.80;;;10.70;99.90;;;;;;4992429;28;20479;-80
2022/05/31 05:26:12;;;;;;;6.30;3.75;;;10.80;99.90;;;;;;4974556;28;20457;-79
2022/05/31 05:31:33;;;;;;;6.93;4.45;;;10.80;99.90;;;;;;4992011;28;20405;-79
2022/05/31 05:34:00;;;;;;;7.05;4.45;;;10.90;99.90;;;;;;4974543;28;20054;-76
2022/05/31 05:36:27;;;;;;;9.02;4.40;;;11.00;99.90;;;;;;4994687;28;20430;-79
2022/05/31 05:38:53;;;;;;;8.68;4.22;;;11.00;99.90;;;;;;4974217;28;20485;-80
2022/05/31 05:41:20;;;;;;;13.50;5.60;;;11.10;99.90;;;;;;4958255;28;20402;-77
2022/05/31 05:43:46;;;;;;;7.57;4.38;;;11.10;99.90;;;;;;4974337;28;20047;-78
2022/05/31 05:46:28;;;;;;;7.53;4.40;;;11.10;99.90;;;;;;4974138;28;20080;-79
2022/05/31 05:48:55;;;;;;;10.02;4.35;;;11.10;99.90;;;;;;4957690;28;20655;-79
2022/05/31 05:51:25;;;;;;;7.72;4.35;;;11.10;99.90;;;;;;4991203;28;20498;-81
2022/05/31 05:53:52;;;;;;;9.18;4.82;;;11.20;99.90;;;;;;4993457;28;20129;-81
2022/05/31 05:56:18;;;;;;;9.82;4.65;;;11.20;99.90;;;;;;4991284;28;20069;-80
2022/05/31 05:58:44;;;;;;;8.10;4.50;;;11.20;99.90;;;;;;4991639;28;20178;-79
2022/05/31 06:01:22;;;;;;;10.23;4.28;;;11.20;99.90;;;;;;4992186;28;20053;-81
2022/05/31 06:04:11;;;;;;;7.65;4.40;;;11.20;99.90;;;;;;4991620;28;20069;-77
2022/05/31 06:06:41;;;;;;;8.55;4.22;;;11.20;99.90;;;;;;4991644;28;20054;-78
2022/05/31 06:09:20;;;;;;;10.88;5.32;;;11.20;99.90;;;;;;4974168;28;20518;-78
2022/05/31 06:12:03;;;;;;;8.23;4.93;;;11.20;99.90;;;;;;4997537;28;20069;-77
2022/05/31 06:14:35;;;;;;;8.82;4.28;;;11.30;99.90;;;;;;4994118;28;20061;-79
2022/05/31 06:17:08;;;;;;;7.95;4.88;;;11.30;99.90;;;;;;4958104;28;20090;-79
2022/05/31 06:19:36;;;;;;;9.52;4.90;;;11.30;99.90;;;;;;4974337;28;20042;-79
2022/05/31 06:22:04;;;;;;;7.97;5.00;;;11.20;99.90;;;;;;4974154;28;20379;-78
2022/05/31 06:24:34;;;;;;;8.77;5.03;;;11.30;99.90;;;;;;4991115;28;20054;-76
2022/05/31 06:27:00;;;;;;;8.18;4.35;;;11.30;99.90;;;;;;4991496;28;20065;-77
2022/05/31 06:29:29;;;;;;;8.90;4.50;;;11.30;99.90;;;;;;4974811;28;20058;-78
2022/05/31 06:31:55;;;;;;;8.45;5.35;;;11.30;99.90;;;;;;4976079;28;20058;-77
2022/05/31 06:34:23;;;;;;;7.63;4.63;;;11.40;99.90;;;;;;4973730;28;20152;-78
2022/05/31 06:36:49;;;;;;;9.18;4.25;;;11.40;99.90;;;;;;4973757;28;20073;-77
2022/05/31 06:39:16;;;;;;;6.60;3.92;;;11.50;99.90;;;;;;4990829;28;20054;-78
2022/05/31 06:41:41;;;;;;;8.55;4.53;;;11.50;99.90;;;;;;4957567;28;20109;-79
2022/05/31 06:44:07;;;;;;;10.55;4.80;;;11.60;99.90;;;;;;4973575;28;20541;-78
2022/05/31 06:46:33;;;;;;;7.35;3.67;;;11.60;99.90;;;;;;4994702;28;20097;-78
2022/05/31 06:49:01;;;;;;;6.75;4.38;;;11.70;99.90;;;;;;4992330;28;20054;-79
2022/05/31 06:56:59;;;;;;;6.90;3.90;;;11.70;99.90;;;;;;4990663;28;20572;-79
2022/05/31 06:59:25;;;;;;;9.93;4.13;;;11.80;99.90;;;;;;4990932;28;20050;-79
2022/05/31 07:01:53;;;;;;;7.60;4.25;;;11.90;99.90;;;;;;4973933;28;20058;-79
2022/05/31 07:04:19;;;;;;;6.53;4.30;;;12.00;99.90;;;;;;4978792;28;20058;-78
2022/05/31 07:06:45;;;;;;;6.95;4.43;;;12.10;99.90;;;;;;4976792;28;20112;-79
2022/05/31 07:09:12;;;;;;;7.18;4.63;;;12.10;99.90;;;;;;4977184;28;20050;-81
2022/05/31 07:11:39;;;;;;;7.85;4.82;;;12.20;99.90;;;;;;4976981;28;20068;-81
2022/05/31 07:14:05;;;;;;;8.45;4.53;;;12.30;99.90;;;;;;4994184;28;20054;-81
2022/05/31 07:16:31;;;;;;;6.78;4.53;;;12.40;99.90;;;;;;4976676;28;20054;-79
2022/05/31 07:18:57;;;;;;;9.00;4.80;;;12.50;99.90;;;;;;4976742;28;20106;-79
2022/05/31 07:21:24;;;;;;;8.30;4.65;;;12.50;99.90;;;;;;4995146;28;20057;-77
2022/05/31 07:23:53;;;;;;;12.02;4.63;;;12.60;99.90;;;;;;4977747;28;20082;-79
2022/05/31 07:26:20;;;;;;;7.18;4.25;;;12.50;99.90;;;;;;4961253;28;20050;-79
2022/05/31 07:28:46;;;;;;;10.38;5.30;;;12.50;99.90;;;;;;4976676;28;20058;-79
2022/05/31 07:31:12;;;;;;;9.07;5.35;;;12.60;99.90;;;;;;4994585;28;20042;-81
2022/05/31 07:33:38;;;;;;;8.63;4.82;;;12.50;99.90;;;;;;4994031;28;20524;-80
2022/05/31 07:36:05;;;;;;;7.38;5.22;;;12.50;99.90;;;;;;4976079;28;20047;-79
2022/05/31 07:38:31;;;;;;;7.35;4.65;;;12.50;99.90;;;;;;4976807;28;20060;-79
2022/05/31 07:40:57;;;;;;;11.50;4.80;;;12.50;99.90;;;;;;4997500;28;20057;-78
2022/05/31 07:43:23;;;;;;;8.82;5.07;;;12.50;99.90;;;;;;4980733;28;20049;-80
2022/05/31 07:45:49;;;;;;;10.10;4.50;;;12.50;99.90;;;;;;4993818;28;20506;-76
2022/05/31 07:48:15;;;;;;;7.38;4.15;;;12.50;99.90;;;;;;4976446;28;20046;-77
2022/05/31 07:50:41;;;;;;;9.73;4.22;;;12.50;99.90;;;;;;4976171;28;20054;-79
2022/05/31 07:53:06;;;;;;;6.32;4.20;;;12.60;99.90;;;;;;4993550;28;20063;-81
2022/05/31 07:55:32;;;;;;;6.05;4.13;;;12.60;99.90;;;;;;4976158;28;20065;-81
2022/05/31 08:00:43;;;;;;;7.47;5.10;;;12.60;99.90;;;;;;5000345;28;20050;-80
2022/05/31 08:03:09;;;;;;;5.88;4.03;;;12.70;99.90;;;;;;4977650;28;20109;-79
2022/05/31 08:05:39;;;;;;;9.85;5.18;;;12.60;99.90;;;;;;4976296;28;20064;-77
2022/05/31 08:08:06;;;;;;;8.85;5.07;;;12.70;99.90;;;;;;4975677;28;20142;-78
2022/05/31 08:10:32;;;;;;;8.18;4.82;;;12.70;99.90;;;;;;4993333;28;20491;-76
2022/05/31 08:12:58;;;;;;;9.00;5.15;;;12.70;99.90;;;;;;4977567;28;20117;-79
2022/05/31 08:15:24;;;;;;;7.50;4.88;;;12.70;99.90;;;;;;4958511;28;20133;-78
2022/05/31 08:17:50;;;;;;;8.88;5.63;;;12.60;99.90;;;;;;4975769;28;20133;-76
2022/05/31 08:20:16;;;;;;;9.13;6.30;;;12.70;99.90;;;;;;4993971;28;20116;-77
2022/05/31 08:22:44;;;;;;;10.02;5.85;;;12.70;99.90;;;;;;4959260;28;20046;-78
2022/05/31 08:25:10;;;;;;;12.52;5.63;;;12.70;99.90;;;;;;4959085;28;20049;-80
2022/05/31 08:27:37;;;;;;;7.65;4.88;;;12.70;99.90;;;;;;4975402;28;20054;-80
2022/05/31 08:30:05;;;;;;;9.73;5.93;;;12.70;99.90;;;;;;4974894;28;20057;-79
2022/05/31 08:32:32;;;;;;;10.85;4.80;;;12.70;99.90;;;;;;4976964;28;20506;-79
2022/05/31 08:34:58;;;;;;;8.48;4.95;;;12.60;99.90;;;;;;4995634;28;20058;-78
2022/05/31 08:37:24;;;;;;;11.48;6.13;;;12.80;99.90;;;;;;4992867;28;20050;-79
2022/05/31 08:39:50;;;;;;;8.85;5.00;;;12.90;99.90;;;;;;4975378;28;20402;-79
2022/05/31 08:42:41;;;;;;;8.35;5.32;;;13.00;99.90;;;;;;4992734;28;20058;-80
2022/05/31 08:45:19;;;;;;;9.85;5.10;;;13.10;99.90;;;;;;4975205;28;20259;-79
2022/05/31 08:47:48;;;;;;;8.68;5.60;;;13.20;99.90;;;;;;4992912;28;20042;-79
2022/05/31 08:53:26;;;;;;;8.02;5.05;;;13.50;99.90;;;;;;4977807;28;20058;-80
2022/05/31 08:59:33;;;;;;;6.78;4.63;;;13.60;99.90;;;;;;4879508;29;20060;-79
2022/05/31 09:02:02;;;;;;;8.07;4.80;;;13.80;99.90;;;;;;4972169;28;20442;-77
2022/05/31 09:04:43;;;;;;;7.72;4.90;;;13.90;99.90;;;;;;4992565;28;20062;-79
2022/05/31 09:07:24;;;;;;;9.52;4.85;;;14.10;99.90;;;;;;4992701;28;20069;-78
2022/05/31 09:10:04;;;;;;;9.65;4.80;;;14.20;99.90;;;;;;4994290;28;20046;-79
2022/05/31 09:12:54;;;;;;;7.85;5.30;;;14.40;99.90;;;;;;4974953;28;20198;-77
2022/05/31 09:15:53;;;;;;;9.05;4.78;;;14.50;99.90;;;;;;4992144;28;20053;-79
2022/05/31 09:18:45;;;;;;;11.52;4.88;;;14.60;99.90;;;;;;4975268;28;20065;-78
2022/05/31 09:21:25;;;;;;;8.43;5.78;;;14.60;99.90;;;;;;4974491;28;20058;-78
2022/05/31 09:23:52;;;;;;;7.78;5.10;;;14.80;99.90;;;;;;4974795;28;20107;-78
2022/05/31 09:26:36;;;;;;;12.45;5.22;;;14.90;99.90;;;;;;4991628;28;20058;-79
2022/05/31 09:29:08;;;;;;;7.15;5.13;;;15.10;99.90;;;;;;4993997;28;20387;-79
2022/05/31 09:31:43;;;;;;;9.68;4.93;;;15.40;99.90;;;;;;4992550;28;20058;-78
2022/05/31 09:34:08;;;;;;;;;;;15.80;99.90;;;;;;4992062;28;20391;-79
2022/05/31 09:36:45;;;;;;;7.43;4.78;;;16.10;99.90;;;;;;4958422;28;19926;-77
2022/05/31 09:39:55;;;;;;;10.43;4.97;;;16.30;99.90;;;;;;4963320;28;20050;-83
2022/05/31 09:42:25;;;;;;;9.32;4.95;;;16.50;99.90;;;;;;4974281;28;20512;-80
2022/05/31 09:45:08;;;;;;;7.82;5.28;;;16.80;99.90;;;;;;4974405;28;20065;-79
2022/05/31 09:47:34;;;;;;;7.20;4.72;;;17.20;99.90;;;;;;4974953;28;20104;-80
2022/05/31 09:50:00;;;;;;;9.40;5.40;;;17.60;99.90;;;;;;4995924;28;20378;-80
2022/05/31 09:52:59;;;;;;;6.97;4.68;;;17.80;99.90;;;;;;4991430;28;20120;-82
2022/05/31 09:58:32;;;;;;;7.18;4.82;;;18.20;99.90;;;;;;4973687;28;20050;-81
2022/05/31 10:01:01;;;;;;;14.65;6.30;;;18.30;99.90;;;;;;4973964;28;20775;-82
2022/05/31 10:03:40;;;;;;;11.52;5.10;;;18.20;99.90;;;;;;4974046;28;20081;-77
2022/05/31 10:06:28;;;;;;;7.88;4.75;;;18.00;99.90;;;;;;4977822;28;20184;-81
2022/05/31 10:08:55;;;;;;;6.68;4.40;;;17.90;99.90;;;;;;4992332;28;20529;-81
2022/05/31 10:11:26;;;;;;;8.73;4.90;;;18.10;99.90;;;;;;4977669;28;20054;-77
2022/05/31 10:14:05;;;;;;;10.43;5.18;;;18.10;99.90;;;;;;4991580;28;20050;-80
2022/05/31 10:16:33;;;;;;;10.55;5.50;;;18.50;99.90;;;;;;4991723;28;20089;-82
2022/05/31 10:19:04;;;;;;;9.20;5.22;;;18.40;99.90;;;;;;4991139;28;20050;-80
2022/05/31 10:21:42;;;;;;;8.07;4.55;;;18.50;99.90;;;;;;4991400;28;20058;-82
2022/05/31 10:24:32;;;;;;;7.20;4.43;;;18.40;99.90;;;;;;4993445;28;20179;-83
2022/05/31 10:27:06;;;;;;;7.70;4.28;;;18.50;99.90;;;;;;4974590;28;20061;-82
2022/05/31 10:29:33;;;;;;;;;;;18.80;99.90;;;;;;4974654;28;20058;-80
2022/05/31 10:32:19;;;;;;;7.25;4.28;;;19.00;99.90;;;;;;4957749;28;19922;-81
2022/05/31 10:34:47;;;;;;;8.38;4.65;;;19.20;99.90;;;;;;4990661;28;20055;-83
2022/05/31 10:37:32;;;;;;;7.57;4.70;;;19.60;99.90;;;;;;4957854;28;20050;-79
2022/05/31 10:40:07;;;;;;;6.55;4.63;;;20.00;98.90;;;;;;4997376;28;20132;-81
2022/05/31 10:42:37;;;;;;;6.68;4.45;;;20.10;98.80;;;;;;4999507;28;20135;-83
2022/05/31 10:45:05;;;;;;;6.43;3.65;;;20.10;98.40;;;;;;4994961;28;20058;-78
2022/05/31 10:47:31;;;;;;;7.28;4.07;;;20.00;98.40;;;;;;4995184;28;20094;-82
2022/05/31 10:49:57;;;;;;;7.75;3.47;;;20.00;99.20;;;;;;4995203;28;20081;-82
2022/05/31 10:53:06;;;;;;;7.15;4.20;;;19.90;99.00;;;;;;4978058;28;20050;-82
2022/05/31 10:55:48;;;;;;;6.80;4.20;;;19.80;98.20;;;;;;4963701;28;20057;-82
2022/05/31 10:58:23;;;;;;;7.07;3.90;;;19.90;98.70;;;;;;4995321;28;20078;-82
2022/05/31 11:01:07;;;;;;;;;;;19.80;98.10;;;;;;4961822;28;20518;-80
2022/05/31 11:03:46;;;;;;;6.73;3.83;;;19.70;98.60;;;;;;4994823;28;20040;-81
2022/05/31 11:06:14;;;;;;;6.85;4.07;;;19.50;99.40;;;;;;4978337;28;20046;-81
2022/05/31 11:11:52;;;;;;;6.55;3.70;;;19.10;97.80;;;;;;4994301;28;20502;-79
2022/05/31 11:14:53;;;;;;;6.95;3.80;;;19.00;98.50;;;;;;5000280;28;20564;-82
2022/05/31 11:17:47;;;;;;;7.70;3.95;;;18.90;99.40;;;;;;4997509;28;20058;-81
2022/05/31 11:20:48;;;;;;;6.45;3.63;;;19.10;99.20;;;;;;4983664;28;20529;-81
2022/05/31 11:23:27;;;;;;;6.15;4.20;;;19.30;99.30;;;;;;4973007;28;20085;-80
2022/05/31 11:25:56;;;;;;;6.50;3.63;;;19.10;97.50;;;;;;4994343;28;20054;-80
2022/05/31 11:28:33;;;;;;;5.82;3.50;;;19.20;98.40;;;;;;4976484;28;20093;-79
2022/05/31 11:31:15;;;;;;;6.38;2.95;;;19.30;98.40;;;;;;4993930;28;20572;-81
2022/05/31 11:33:45;;;;;;;6.30;3.33;;;19.50;97.70;;;;;;4997175;28;20046;-79
2022/05/31 11:36:48;;;;;;;7.47;3.42;;;19.60;97.70;;;;;;4998456;28;20042;-78
2022/05/31 11:39:39;;;;;;;6.75;4.20;;;19.90;97.10;;;;;;4994392;28;20058;-79
2022/05/31 11:42:38;;;;;;;6.60;3.50;;;20.10;94.40;;;;;;4993772;28;20061;-79
2022/05/31 11:45:16;;;;;;;6.10;3.42;;;20.20;93.60;;;;;;4962508;28;20085;-81
2022/05/31 11:48:07;;;;;;;7.15;3.95;;;20.40;94.00;;;;;;4994306;28;20053;-81
2022/05/31 11:50:45;;;;;;;8.68;3.78;;;20.50;90.20;;;;;;4996977;28;20145;-81
2022/05/31 11:53:48;;;;;;;6.55;4.25;;;20.50;88.10;;;;;;4977075;28;20442;-81
2022/05/31 11:56:33;;;;;;;7.53;3.65;;;20.50;81.90;;;;;;4993381;28;20465;-80
2022/05/31 11:59:12;;;;;;;8.48;4.90;;;20.60;90.40;;;;;;4976729;28;20050;-81
2022/05/31 12:02:06;;;;;;;6.50;3.83;;;20.60;88.50;;;;;;4976229;28;20065;-81
2022/05/31 12:04:51;;;;;;;7.32;4.00;;;20.60;83.90;;;;;;4976009;28;20569;-80
2022/05/31 12:07:27;;;;;;;5.55;3.75;;;20.30;84.20;;;;;;4999288;28;20057;-78
2022/05/31 12:09:59;;;;;;;6.60;3.47;;;20.20;89.80;;;;;;4994415;28;20058;-78
2022/05/31 12:12:31;;;;;;;5.93;3.67;;;20.20;89.60;;;;;;4993401;28;20046;-81
2022/05/31 12:15:20;;;;;;;7.28;3.83;;;20.00;90.10;;;;;;4993512;28;20058;-79
2022/05/31 12:17:58;;;;;;;8.15;3.90;;;20.00;88.80;;;;;;4975708;28;20065;-80
2022/05/31 12:20:29;;;;;;;9.43;3.50;;;19.80;90.40;;;;;;4976445;28;20147;-77
2022/05/31 12:23:20;;;;;;;6.88;3.58;;;19.80;90.50;;;;;;4976998;28;20057;-81
2022/05/31 12:25:54;;;;;;;6.43;3.45;;;19.70;90.70;;;;;;4996365;28;20085;-79
2022/05/31 12:28:29;;;;;;;8.80;3.30;;;19.70;91.00;;;;;;4975979;28;20410;-82
2022/05/31 12:31:02;;;;;;;12.13;4.07;;;19.60;90.50;;;;;;4975595;28;20474;-81
2022/05/31 12:33:46;;;;;;;6.15;3.17;;;19.60;90.50;;;;;;4993152;28;20454;-82
2022/05/31 12:36:15;;;;;;;10.25;3.35;;;19.70;91.70;;;;;;4993646;28;20371;-81
2022/05/31 12:39:11;;;;;;;7.43;3.78;;;19.70;92.90;;;;;;4959853;28;20043;-78
2022/05/31 12:41:42;;;;;;;6.57;3.42;;;19.80;92.70;;;;;;4963128;28;20054;-82
2022/05/31 12:44:14;;;;;;;6.63;3.45;;;19.70;92.80;;;;;;4958928;28;20069;-81
2022/05/31 12:46:46;;;;;;;7.53;3.40;;;19.60;93.40;;;;;;4974958;28;20498;-81
2022/05/31 12:49:24;;;;;;;7.00;3.55;;;19.70;94.60;;;;;;4992691;28;20058;-81
2022/05/31 12:54:56;;;;;;;6.13;3.53;;;19.50;93.10;;;;;;4975707;28;20054;-84
2022/05/31 13:00:49;;;;;;;9.88;4.25;;;19.40;93.90;;;;;;4974335;28;20050;-81
2022/05/31 13:03:33;;;;;;;5.65;2.80;;;19.30;93.80;;;;;;4992429;28;20085;-78
2022/05/31 13:06:33;;;;;;;6.55;3.40;;;19.00;94.40;;;;;;4992629;28;20069;-80
2022/05/31 13:09:02;;;;;;;8.85;3.30;;;18.80;93.80;;;;;;4992288;28;20154;-81
2022/05/31 13:20:10;;;;;;;7.65;3.50;;;18.20;96.20;;;;;;4974719;28;20050;-79
2022/05/31 13:22:56;;;;;;;7.47;2.70;;;18.00;96.90;;;;;;4974254;28;20093;-80
2022/05/31 13:26:00;;;;;;;7.97;3.28;;;17.90;97.50;;;;;;4973404;28;20066;-83
2022/05/31 13:28:40;;;;;;;6.35;2.60;;;17.70;96.90;;;;;;4974609;28;20050;-79
2022/05/31 13:31:21;;;;;;;5.00;2.70;;;17.60;97.40;;;;;;4977392;28;20061;-78
2022/05/31 13:34:02;;;;;;;5.90;3.20;;;17.40;97.30;;;;;;4992303;28;20085;-80
2022/05/31 13:36:31;;;;;;;5.97;2.35;;;17.30;97.60;;;;;;4992450;28;20311;-81
2022/05/31 13:39:03;;;;;;;5.32;2.28;;;17.10;97.70;;;;;;4991860;28;20056;-80
2022/05/31 13:41:31;;;;;;;7.68;3.00;;;17.00;98.10;;;;;;4991588;28;20506;-82
2022/05/31 13:44:01;;;;;;;7.15;2.60;;;16.90;99.00;;;;;;4974365;28;20414;-81
2022/05/31 13:46:42;;;;;;;14.13;3.28;;;16.80;99.90;;;;;;4974613;28;20065;-80
2022/05/31 13:49:21;;;;;;;5.65;3.15;;;16.70;99.90;;;;;;4994679;28;20502;-80
2022/05/31 13:52:02;;;;;;;7.50;3.40;;;16.50;99.90;;;;;;4991588;28;20482;-80
2022/05/31 13:54:41;;;;;;;7.45;3.78;;;16.40;99.90;;;;;;4976081;28;20072;-79
2022/05/31 13:57:07;;;;;;;7.63;3.42;;;16.30;99.90;;;;;;4992307;28;20486;-82